sensor_id;sensor_type;location;lat;lon;timestamp;temperature;humidity
35920;DHT22;36160;53.370;-6.196;2022-12-07T00:00:42;4.60;99.90
35920;DHT22;36160;53.370;-6.196;2022-12-07T00:03:07;4.60;99.90
35920;DHT22;36160;53.370;-6.196;2022-12-07T00:05:33;4.70;99.90
35920;DHT22;36160;53.370;-6.196;2022-12-07T00:07:58;4.70;99.90
35920;DHT22;36160;53.370;-6.196;2022-12-07T00:10:24;4.60;99.90
35920;DHT22;36160;53.370;-6.196;2022-12-07T00:12:50;4.70;99.90
35920;DHT22;36160;53.370;-6.196;2022-12-07T00:15:15;4.60;99.90
35920;DHT22;36160;53.370;-6.196;2022-12-07T00:17:41;4.60;99.90
35920;DHT22;36160;53.370;-6.196;2022-12-07T00:20:07;4.70;99.90
35920;DHT22;36160;53.370;-6.196;2022-12-07T00:22:33;4.70;99.90
35920;DHT22;36160;53.370;-6.196;2022-12-07T00:24:58;4.70;99.90
35920;DHT22;36160;53.370;-6.196;2022-12-07T00:27:24;4.60;99.90
35920;DHT22;36160;53.370;-6.196;2022-12-07T00:29:50;4.70;99.90
35920;DHT22;36160;53.370;-6.196;2022-12-07T00:32:15;4.80;99.90
35920;DHT22;36160;53.370;-6.196;2022-12-07T00:34:41;4.70;99.90
35920;DHT22;36160;53.370;-6.196;2022-12-07T00:37:07;4.80;99.90
35920;DHT22;36160;53.370;-6.196;2022-12-07T00:39:32;4.80;99.90
35920;DHT22;36160;53.370;-6.196;2022-12-07T00:41:58;4.80;99.90
35920;DHT22;36160;53.370;-6.196;2022-12-07T00:44:23;4.80;99.90
35920;DHT22;36160;53.370;-6.196;2022-12-07T00:46:49;4.80;99.90
35920;DHT22;36160;53.370;-6.196;2022-12-07T00:49:15;4.90;99.90
35920;DHT22;36160;53.370;-6.196;2022-12-07T00:51:40;4.90;99.90
35920;DHT22;36160;53.370;-6.196;2022-12-07T00:54:06;4.90;99.90
35920;DHT22;36160;53.370;-6.196;2022-12-07T00:56:32;4.90;99.90
35920;DHT22;36160;53.370;-6.196;2022-12-07T00:59:00;4.90;99.90
35920;DHT22;36160;53.370;-6.196;2022-12-07T01:01:28;4.90;99.90
35920;DHT22;36160;53.370;-6.196;2022-12-07T01:03:54;4.90;99.90
35920;DHT22;36160;53.370;-6.196;2022-12-07T01:06:21;4.90;99.90
35920;DHT22;36160;53.370;-6.196;2022-12-07T01:08:47;4.80;99.90
35920;DHT22;36160;53.370;-6.196;2022-12-07T01:11:16;4.90;99.90
35920;DHT22;36160;53.370;-6.196;2022-12-07T01:13:43;4.80;99.90
35920;DHT22;36160;53.370;-6.196;2022-12-07T01:16:12;4.90;99.90
35920;DHT22;36160;53.370;-6.196;2022-12-07T01:18:38;4.80;99.90
35920;DHT22;36160;53.370;-6.196;2022-12-07T01:21:05;4.80;99.90
35920;DHT22;36160;53.370;-6.196;2022-12-07T01:23:33;4.70;99.90
35920;DHT22;36160;53.370;-6.196;2022-12-07T01:26:01;4.70;99.90
35920;DHT22;36160;53.370;-6.196;2022-12-07T01:28:28;4.60;99.90
35920;DHT22;36160;53.370;-6.196;2022-12-07T01:30:58;4.60;99.90
35920;DHT22;36160;53.370;-6.196;2022-12-07T01:33:25;4.60;99.90
35920;DHT22;36160;53.370;-6.196;2022-12-07T01:35:51;4.60;99.90
35920;DHT22;36160;53.370;-6.196;2022-12-07T01:38:17;4.60;99.90
35920;DHT22;36160;53.370;-6.196;2022-12-07T01:40:42;4.60;99.90
35920;DHT22;36160;53.370;-6.196;2022-12-07T01:43:19;4.60;99.90
35920;DHT22;36160;53.370;-6.196;2022-12-07T01:45:45;4.50;99.90
35920;DHT22;36160;53.370;-6.196;2022-12-07T01:48:14;4.60;99.90
35920;DHT22;36160;53.370;-6.196;2022-12-07T01:50:42;4.50;99.90
35920;DHT22;36160;53.370;-6.196;2022-12-07T01:53:09;4.50;99.90
35920;DHT22;36160;53.370;-6.196;2022-12-07T01:55:40;4.50;99.90
35920;DHT22;36160;53.370;-6.196;2022-12-07T01:58:07;4.50;99.90
35920;DHT22;36160;53.370;-6.196;2022-12-07T02:00:33;4.40;99.90
35920;DHT22;36160;53.370;-6.196;2022-12-07T02:03:14;4.50;99.90
35920;DHT22;36160;53.370;-6.196;2022-12-07T02:05:42;4.50;99.90
35920;DHT22;36160;53.370;-6.196;2022-12-07T02:08:10;4.50;99.90
35920;DHT22;36160;53.370;-6.196;2022-12-07T02:10:36;4.50;99.90
35920;DHT22;36160;53.370;-6.196;2022-12-07T02:13:16;4.40;99.90
35920;DHT22;36160;53.370;-6.196;2022-12-07T02:18:45;4.40;99.90
35920;DHT22;36160;53.370;-6.196;2022-12-07T02:21:45;4.40;99.90
35920;DHT22;36160;53.370;-6.196;2022-12-07T02:24:29;4.30;99.90
35920;DHT22;36160;53.370;-6.196;2022-12-07T02:30:12;4.30;99.90
35920;DHT22;36160;53.370;-6.196;2022-12-07T02:33:07;4.40;99.90
35920;DHT22;36160;53.370;-6.196;2022-12-07T02:38:20;4.40;99.90
35920;DHT22;36160;53.370;-6.196;2022-12-07T02:40:57;4.30;99.90
35920;DHT22;36160;53.370;-6.196;2022-12-07T02:43:33;4.20;99.90
35920;DHT22;36160;53.370;-6.196;2022-12-07T02:46:09;4.20;99.90
35920;DHT22;36160;53.370;-6.196;2022-12-07T02:48:37;4.30;99.90
35920;DHT22;36160;53.370;-6.196;2022-12-07T02:51:04;4.30;99.90
35920;DHT22;36160;53.370;-6.196;2022-12-07T02:53:41;4.30;99.90
35920;DHT22;36160;53.370;-6.196;2022-12-07T03:12:50;4.10;99.90
35920;DHT22;36160;53.370;-6.196;2022-12-07T03:17:54;4.20;99.90
35920;DHT22;36160;53.370;-6.196;2022-12-07T03:20:22;4.10;99.90
35920;DHT22;36160;53.370;-6.196;2022-12-07T03:22:51;4.10;99.90
35920;DHT22;36160;53.370;-6.196;2022-12-07T03:25:18;4.10;99.90
35920;DHT22;36160;53.370;-6.196;2022-12-07T03:27:53;4.10;99.90
35920;DHT22;36160;53.370;-6.196;2022-12-07T03:30:24;4.10;99.90
35920;DHT22;36160;53.370;-6.196;2022-12-07T03:32:59;4.10;99.90
35920;DHT22;36160;53.370;-6.196;2022-12-07T03:35:34;4.20;99.90
35920;DHT22;36160;53.370;-6.196;2022-12-07T03:38:13;4.20;99.90
35920;DHT22;36160;53.370;-6.196;2022-12-07T03:41:04;4.20;99.90
35920;DHT22;36160;53.370;-6.196;2022-12-07T03:43:31;4.20;99.90
35920;DHT22;36160;53.370;-6.196;2022-12-07T03:46:04;4.20;99.90
35920;DHT22;36160;53.370;-6.196;2022-12-07T03:56:35;4.20;99.90
35920;DHT22;36160;53.370;-6.196;2022-12-07T03:59:02;4.20;99.90
35920;DHT22;36160;53.370;-6.196;2022-12-07T04:01:27;4.10;99.90
35920;DHT22;36160;53.370;-6.196;2022-12-07T04:03:53;4.10;99.90
35920;DHT22;36160;53.370;-6.196;2022-12-07T04:06:19;4.10;99.90
35920;DHT22;36160;53.370;-6.196;2022-12-07T04:08:44;4.10;99.90
35920;DHT22;36160;53.370;-6.196;2022-12-07T04:11:10;4.10;99.90
35920;DHT22;36160;53.370;-6.196;2022-12-07T04:13:37;4.10;99.90
35920;DHT22;36160;53.370;-6.196;2022-12-07T04:16:22;4.10;99.90
35920;DHT22;36160;53.370;-6.196;2022-12-07T04:18:48;4.20;99.90
35920;DHT22;36160;53.370;-6.196;2022-12-07T04:21:13;4.10;99.90
35920;DHT22;36160;53.370;-6.196;2022-12-07T04:23:39;4.10;99.90
35920;DHT22;36160;53.370;-6.196;2022-12-07T04:26:05;4.10;99.90
35920;DHT22;36160;53.370;-6.196;2022-12-07T04:28:30;4.10;99.90
35920;DHT22;36160;53.370;-6.196;2022-12-07T04:30:56;4.00;99.90
35920;DHT22;36160;53.370;-6.196;2022-12-07T04:33:22;4.10;99.90
35920;DHT22;36160;53.370;-6.196;2022-12-07T04:35:47;4.10;99.90
35920;DHT22;36160;53.370;-6.196;2022-12-07T04:38:13;4.10;99.90
35920;DHT22;36160;53.370;-6.196;2022-12-07T04:40:39;4.10;99.90
35920;DHT22;36160;53.370;-6.196;2022-12-07T04:43:04;4.10;99.90
35920;DHT22;36160;53.370;-6.196;2022-12-07T04:45:30;4.10;99.90
35920;DHT22;36160;53.370;-6.196;2022-12-07T04:47:56;4.10;99.90
35920;DHT22;36160;53.370;-6.196;2022-12-07T04:50:21;4.10;99.90
35920;DHT22;36160;53.370;-6.196;2022-12-07T04:52:47;4.10;99.90
35920;DHT22;36160;53.370;-6.196;2022-12-07T04:55:12;4.00;99.90
35920;DHT22;36160;53.370;-6.196;2022-12-07T04:57:38;4.00;99.90
35920;DHT22;36160;53.370;-6.196;2022-12-07T05:00:04;4.00;99.90
35920;DHT22;36160;53.370;-6.196;2022-12-07T05:02:30;3.90;99.90
35920;DHT22;36160;53.370;-6.196;2022-12-07T05:04:56;3.80;99.90
35920;DHT22;36160;53.370;-6.196;2022-12-07T05:07:21;3.80;99.90
35920;DHT22;36160;53.370;-6.196;2022-12-07T05:09:47;3.70;99.90
35920;DHT22;36160;53.370;-6.196;2022-12-07T05:12:13;3.80;99.90
35920;DHT22;36160;53.370;-6.196;2022-12-07T05:14:38;3.70;99.90
35920;DHT22;36160;53.370;-6.196;2022-12-07T05:17:04;3.70;99.90
35920;DHT22;36160;53.370;-6.196;2022-12-07T05:19:30;3.70;99.90
35920;DHT22;36160;53.370;-6.196;2022-12-07T05:21:55;3.80;99.90
35920;DHT22;36160;53.370;-6.196;2022-12-07T05:24:21;3.60;99.90
35920;DHT22;36160;53.370;-6.196;2022-12-07T05:26:47;3.70;99.90
35920;DHT22;36160;53.370;-6.196;2022-12-07T05:29:14;3.80;99.90
35920;DHT22;36160;53.370;-6.196;2022-12-07T05:31:40;3.70;99.90
35920;DHT22;36160;53.370;-6.196;2022-12-07T05:34:06;3.80;99.90
35920;DHT22;36160;53.370;-6.196;2022-12-07T05:36:31;3.80;99.90
35920;DHT22;36160;53.370;-6.196;2022-12-07T05:38:57;3.70;99.90
35920;DHT22;36160;53.370;-6.196;2022-12-07T05:41:23;3.80;99.90
35920;DHT22;36160;53.370;-6.196;2022-12-07T05:44:08;3.80;99.90
35920;DHT22;36160;53.370;-6.196;2022-12-07T05:46:34;3.80;99.90
35920;DHT22;36160;53.370;-6.196;2022-12-07T05:49:00;3.80;99.90
35920;DHT22;36160;53.370;-6.196;2022-12-07T05:51:26;3.80;99.90
35920;DHT22;36160;53.370;-6.196;2022-12-07T05:53:52;3.70;99.90
35920;DHT22;36160;53.370;-6.196;2022-12-07T05:56:17;3.70;99.90
35920;DHT22;36160;53.370;-6.196;2022-12-07T05:58:43;3.70;99.90
35920;DHT22;36160;53.370;-6.196;2022-12-07T06:01:27;3.80;99.90
35920;DHT22;36160;53.370;-6.196;2022-12-07T06:03:53;3.70;99.90
35920;DHT22;36160;53.370;-6.196;2022-12-07T06:06:19;3.70;99.90
35920;DHT22;36160;53.370;-6.196;2022-12-07T06:08:44;3.80;99.90
35920;DHT22;36160;53.370;-6.196;2022-12-07T06:11:10;3.90;99.90
35920;DHT22;36160;53.370;-6.196;2022-12-07T06:13:55;3.80;99.90
35920;DHT22;36160;53.370;-6.196;2022-12-07T06:16:20;3.80;99.90
35920;DHT22;36160;53.370;-6.196;2022-12-07T06:18:46;3.70;99.90
35920;DHT22;36160;53.370;-6.196;2022-12-07T06:21:12;3.70;99.90
35920;DHT22;36160;53.370;-6.196;2022-12-07T06:23:38;3.80;99.90
35920;DHT22;36160;53.370;-6.196;2022-12-07T06:26:07;3.80;99.90
35920;DHT22;36160;53.370;-6.196;2022-12-07T06:28:32;3.70;99.90
35920;DHT22;36160;53.370;-6.196;2022-12-07T06:30:59;3.70;99.90
35920;DHT22;36160;53.370;-6.196;2022-12-07T06:33:25;3.70;99.90
35920;DHT22;36160;53.370;-6.196;2022-12-07T06:35:51;3.70;99.90
35920;DHT22;36160;53.370;-6.196;2022-12-07T06:38:17;3.70;99.90
35920;DHT22;36160;53.370;-6.196;2022-12-07T06:40:43;3.60;99.90
35920;DHT22;36160;53.370;-6.196;2022-12-07T06:43:08;3.50;99.90
35920;DHT22;36160;53.370;-6.196;2022-12-07T06:45:34;3.60;99.90
35920;DHT22;36160;53.370;-6.196;2022-12-07T06:48:00;3.50;99.90
35920;DHT22;36160;53.370;-6.196;2022-12-07T06:50:26;3.50;99.90
35920;DHT22;36160;53.370;-6.196;2022-12-07T06:52:52;3.50;99.90
35920;DHT22;36160;53.370;-6.196;2022-12-07T06:55:17;3.50;99.90
35920;DHT22;36160;53.370;-6.196;2022-12-07T06:57:43;3.40;99.90
35920;DHT22;36160;53.370;-6.196;2022-12-07T07:00:10;3.40;99.90
35920;DHT22;36160;53.370;-6.196;2022-12-07T07:02:35;3.40;99.90
35920;DHT22;36160;53.370;-6.196;2022-12-07T07:05:02;3.30;99.90
35920;DHT22;36160;53.370;-6.196;2022-12-07T07:07:28;3.40;99.90
35920;DHT22;36160;53.370;-6.196;2022-12-07T07:09:53;3.30;99.90
35920;DHT22;36160;53.370;-6.196;2022-12-07T07:12:19;3.30;99.90
35920;DHT22;36160;53.370;-6.196;2022-12-07T07:14:45;3.30;99.90
35920;DHT22;36160;53.370;-6.196;2022-12-07T07:17:10;3.10;99.90
35920;DHT22;36160;53.370;-6.196;2022-12-07T07:19:36;3.30;99.90
35920;DHT22;36160;53.370;-6.196;2022-12-07T07:22:03;3.20;99.90
35920;DHT22;36160;53.370;-6.196;2022-12-07T07:24:28;3.10;99.90
35920;DHT22;36160;53.370;-6.196;2022-12-07T07:26:54;3.10;99.90
35920;DHT22;36160;53.370;-6.196;2022-12-07T07:29:20;3.00;99.90
35920;DHT22;36160;53.370;-6.196;2022-12-07T07:31:45;3.10;99.90
35920;DHT22;36160;53.370;-6.196;2022-12-07T07:34:11;3.00;99.90
35920;DHT22;36160;53.370;-6.196;2022-12-07T07:36:37;3.10;99.90
35920;DHT22;36160;53.370;-6.196;2022-12-07T07:39:03;3.00;99.90
35920;DHT22;36160;53.370;-6.196;2022-12-07T07:41:29;3.00;99.90
35920;DHT22;36160;53.370;-6.196;2022-12-07T07:43:54;2.90;99.90
35920;DHT22;36160;53.370;-6.196;2022-12-07T07:46:20;3.00;99.90
35920;DHT22;36160;53.370;-6.196;2022-12-07T07:48:46;2.90;99.90
35920;DHT22;36160;53.370;-6.196;2022-12-07T07:51:11;3.00;99.90
35920;DHT22;36160;53.370;-6.196;2022-12-07T07:53:37;3.00;99.90
35920;DHT22;36160;53.370;-6.196;2022-12-07T07:56:03;3.00;99.90
35920;DHT22;36160;53.370;-6.196;2022-12-07T07:58:29;2.90;99.90
35920;DHT22;36160;53.370;-6.196;2022-12-07T08:00:55;2.90;99.90
35920;DHT22;36160;53.370;-6.196;2022-12-07T08:03:20;3.00;99.90
35920;DHT22;36160;53.370;-6.196;2022-12-07T08:05:46;2.90;99.90
35920;DHT22;36160;53.370;-6.196;2022-12-07T08:08:11;2.90;99.90
35920;DHT22;36160;53.370;-6.196;2022-12-07T08:10:38;2.90;99.90
35920;DHT22;36160;53.370;-6.196;2022-12-07T08:13:04;2.80;99.90
35920;DHT22;36160;53.370;-6.196;2022-12-07T08:15:36;2.80;99.90
35920;DHT22;36160;53.370;-6.196;2022-12-07T08:18:02;2.80;99.90
35920;DHT22;36160;53.370;-6.196;2022-12-07T08:20:30;2.90;99.90
35920;DHT22;36160;53.370;-6.196;2022-12-07T08:22:55;2.70;99.90
35920;DHT22;36160;53.370;-6.196;2022-12-07T08:25:21;2.70;99.90
35920;DHT22;36160;53.370;-6.196;2022-12-07T08:27:50;2.80;99.90
35920;DHT22;36160;53.370;-6.196;2022-12-07T08:30:16;2.80;99.90
35920;DHT22;36160;53.370;-6.196;2022-12-07T08:32:44;2.70;99.90
35920;DHT22;36160;53.370;-6.196;2022-12-07T08:35:10;2.70;99.90
35920;DHT22;36160;53.370;-6.196;2022-12-07T08:37:36;2.60;99.90
35920;DHT22;36160;53.370;-6.196;2022-12-07T08:40:02;2.60;99.90
35920;DHT22;36160;53.370;-6.196;2022-12-07T08:42:28;2.70;99.90
35920;DHT22;36160;53.370;-6.196;2022-12-07T08:45:06;2.50;99.90
35920;DHT22;36160;53.370;-6.196;2022-12-07T08:47:32;2.60;99.90
35920;DHT22;36160;53.370;-6.196;2022-12-07T08:49:59;2.60;99.90
35920;DHT22;36160;53.370;-6.196;2022-12-07T08:52:30;2.60;99.90
35920;DHT22;36160;53.370;-6.196;2022-12-07T08:54:56;2.50;99.90
35920;DHT22;36160;53.370;-6.196;2022-12-07T08:57:22;2.60;99.90
35920;DHT22;36160;53.370;-6.196;2022-12-07T08:59:47;2.40;99.90
35920;DHT22;36160;53.370;-6.196;2022-12-07T09:02:13;2.50;99.90
35920;DHT22;36160;53.370;-6.196;2022-12-07T09:04:39;2.50;99.90
35920;DHT22;36160;53.370;-6.196;2022-12-07T09:07:04;2.50;99.90
35920;DHT22;36160;53.370;-6.196;2022-12-07T09:09:30;2.40;99.90
35920;DHT22;36160;53.370;-6.196;2022-12-07T09:11:56;2.40;99.90
35920;DHT22;36160;53.370;-6.196;2022-12-07T09:14:22;2.40;99.90
35920;DHT22;36160;53.370;-6.196;2022-12-07T09:16:48;2.40;99.90
35920;DHT22;36160;53.370;-6.196;2022-12-07T09:19:13;2.40;99.90
35920;DHT22;36160;53.370;-6.196;2022-12-07T09:21:39;2.40;99.90
35920;DHT22;36160;53.370;-6.196;2022-12-07T09:24:05;2.50;99.90
35920;DHT22;36160;53.370;-6.196;2022-12-07T09:26:31;2.40;99.90
35920;DHT22;36160;53.370;-6.196;2022-12-07T09:28:57;2.40;99.90
35920;DHT22;36160;53.370;-6.196;2022-12-07T09:31:23;2.50;99.90
35920;DHT22;36160;53.370;-6.196;2022-12-07T09:33:55;2.40;99.90
35920;DHT22;36160;53.370;-6.196;2022-12-07T09:36:21;2.50;99.90
35920;DHT22;36160;53.370;-6.196;2022-12-07T09:38:47;2.30;99.90
35920;DHT22;36160;53.370;-6.196;2022-12-07T09:41:13;2.40;99.90
35920;DHT22;36160;53.370;-6.196;2022-12-07T09:43:40;2.50;99.90
35920;DHT22;36160;53.370;-6.196;2022-12-07T09:46:06;2.40;99.90
35920;DHT22;36160;53.370;-6.196;2022-12-07T09:48:36;2.50;99.90
35920;DHT22;36160;53.370;-6.196;2022-12-07T09:51:14;2.50;99.90
35920;DHT22;36160;53.370;-6.196;2022-12-07T09:53:42;2.50;99.90
35920;DHT22;36160;53.370;-6.196;2022-12-07T09:56:16;2.60;99.90
35920;DHT22;36160;53.370;-6.196;2022-12-07T09:58:43;2.70;99.90
35920;DHT22;36160;53.370;-6.196;2022-12-07T10:03:38;2.50;99.90
35920;DHT22;36160;53.370;-6.196;2022-12-07T10:06:05;2.50;99.90
35920;DHT22;36160;53.370;-6.196;2022-12-07T10:08:32;2.50;99.90
35920;DHT22;36160;53.370;-6.196;2022-12-07T10:10:59;2.50;99.90
35920;DHT22;36160;53.370;-6.196;2022-12-07T10:13:47;2.50;99.90
35920;DHT22;36160;53.370;-6.196;2022-12-07T10:16:32;2.60;99.90
35920;DHT22;36160;53.370;-6.196;2022-12-07T10:19:25;2.60;99.90
35920;DHT22;36160;53.370;-6.196;2022-12-07T10:22:14;2.60;99.90
35920;DHT22;36160;53.370;-6.196;2022-12-07T10:24:42;2.50;99.90
35920;DHT22;36160;53.370;-6.196;2022-12-07T10:27:32;2.40;99.90
35920;DHT22;36160;53.370;-6.196;2022-12-07T10:30:01;2.50;99.90
35920;DHT22;36160;53.370;-6.196;2022-12-07T10:32:34;2.60;99.90
35920;DHT22;36160;53.370;-6.196;2022-12-07T10:37:48;2.60;99.90
35920;DHT22;36160;53.370;-6.196;2022-12-07T10:40:28;2.60;99.90
35920;DHT22;36160;53.370;-6.196;2022-12-07T10:43:20;2.70;99.90
35920;DHT22;36160;53.370;-6.196;2022-12-07T10:46:25;2.70;99.90
35920;DHT22;36160;53.370;-6.196;2022-12-07T10:51:43;2.80;99.90
35920;DHT22;36160;53.370;-6.196;2022-12-07T11:05:41;3.00;99.90
35920;DHT22;36160;53.370;-6.196;2022-12-07T11:11:22;3.20;99.90
35920;DHT22;36160;53.370;-6.196;2022-12-07T11:23:18;3.30;99.90
35920;DHT22;36160;53.370;-6.196;2022-12-07T11:25:47;3.40;99.90
35920;DHT22;36160;53.370;-6.196;2022-12-07T11:28:24;3.50;99.90
35920;DHT22;36160;53.370;-6.196;2022-12-07T11:31:22;3.60;99.90
35920;DHT22;36160;53.370;-6.196;2022-12-07T11:36:54;3.60;99.90
35920;DHT22;36160;53.370;-6.196;2022-12-07T11:39:31;3.80;99.90
35920;DHT22;36160;53.370;-6.196;2022-12-07T11:42:15;3.80;99.90
35920;DHT22;36160;53.370;-6.196;2022-12-07T11:48:01;3.80;99.90
35920;DHT22;36160;53.370;-6.196;2022-12-07T11:50:41;4.00;99.90
35920;DHT22;36160;53.370;-6.196;2022-12-07T11:58:44;4.10;99.90
35920;DHT22;36160;53.370;-6.196;2022-12-07T12:01:26;4.10;99.90
35920;DHT22;36160;53.370;-6.196;2022-12-07T12:06:34;4.10;99.90
35920;DHT22;36160;53.370;-6.196;2022-12-07T12:09:09;4.30;99.90
35920;DHT22;36160;53.370;-6.196;2022-12-07T12:22:52;4.50;99.90
35920;DHT22;36160;53.370;-6.196;2022-12-07T12:25:29;4.70;86.40
35920;DHT22;36160;53.370;-6.196;2022-12-07T12:27:59;4.90;69.30
35920;DHT22;36160;53.370;-6.196;2022-12-07T12:30:37;5.00;38.70
35920;DHT22;36160;53.370;-6.196;2022-12-07T12:33:28;5.10;26.60
35920;DHT22;36160;53.370;-6.196;2022-12-07T12:36:20;5.20;16.10
35920;DHT22;36160;53.370;-6.196;2022-12-07T12:44:02;5.30;1.00
35920;DHT22;36160;53.370;-6.196;2022-12-07T12:54:27;5.50;1.00
35920;DHT22;36160;53.370;-6.196;2022-12-07T12:59:55;5.50;99.90
35920;DHT22;36160;53.370;-6.196;2022-12-07T13:02:32;5.50;99.90
35920;DHT22;36160;53.370;-6.196;2022-12-07T13:07:49;5.50;99.90
35920;DHT22;36160;53.370;-6.196;2022-12-07T13:15:56;5.60;99.90
35920;DHT22;36160;53.370;-6.196;2022-12-07T13:18:41;5.60;99.90
35920;DHT22;36160;53.370;-6.196;2022-12-07T13:23:33;5.60;99.90
35920;DHT22;36160;53.370;-6.196;2022-12-07T13:26:22;5.60;99.90
35920;DHT22;36160;53.370;-6.196;2022-12-07T13:34:32;5.60;99.90
35920;DHT22;36160;53.370;-6.196;2022-12-07T13:37:01;5.50;99.90
35920;DHT22;36160;53.370;-6.196;2022-12-07T13:39:27;5.50;99.90
35920;DHT22;36160;53.370;-6.196;2022-12-07T13:41:58;5.50;99.90
35920;DHT22;36160;53.370;-6.196;2022-12-07T13:44:26;5.50;99.90
35920;DHT22;36160;53.370;-6.196;2022-12-07T13:49:22;5.50;99.90
35920;DHT22;36160;53.370;-6.196;2022-12-07T13:51:48;5.60;99.90
35920;DHT22;36160;53.370;-6.196;2022-12-07T13:54:14;5.50;99.90
35920;DHT22;36160;53.370;-6.196;2022-12-07T13:56:41;5.50;99.90
35920;DHT22;36160;53.370;-6.196;2022-12-07T13:59:17;5.50;99.90
35920;DHT22;36160;53.370;-6.196;2022-12-07T14:01:46;5.50;99.90
35920;DHT22;36160;53.370;-6.196;2022-12-07T14:04:18;5.60;99.90
35920;DHT22;36160;53.370;-6.196;2022-12-07T14:06:51;5.60;99.90
35920;DHT22;36160;53.370;-6.196;2022-12-07T14:09:25;5.50;99.90
35920;DHT22;36160;53.370;-6.196;2022-12-07T14:11:56;5.50;99.90
35920;DHT22;36160;53.370;-6.196;2022-12-07T14:14:27;5.50;99.90
35920;DHT22;36160;53.370;-6.196;2022-12-07T14:17:08;5.50;99.90
35920;DHT22;36160;53.370;-6.196;2022-12-07T14:19:47;5.50;99.90
35920;DHT22;36160;53.370;-6.196;2022-12-07T14:22:35;5.50;99.90
35920;DHT22;36160;53.370;-6.196;2022-12-07T14:27:32;5.50;99.90
35920;DHT22;36160;53.370;-6.196;2022-12-07T14:30:02;5.50;99.90
35920;DHT22;36160;53.370;-6.196;2022-12-07T14:32:30;5.50;99.90
35920;DHT22;36160;53.370;-6.196;2022-12-07T14:35:00;5.50;99.90
35920;DHT22;36160;53.370;-6.196;2022-12-07T14:37:28;5.50;99.90
35920;DHT22;36160;53.370;-6.196;2022-12-07T14:39:55;5.50;99.90
35920;DHT22;36160;53.370;-6.196;2022-12-07T14:42:24;5.50;99.90
35920;DHT22;36160;53.370;-6.196;2022-12-07T14:44:51;5.50;99.90
35920;DHT22;36160;53.370;-6.196;2022-12-07T14:47:16;5.50;99.90
35920;DHT22;36160;53.370;-6.196;2022-12-07T14:49:42;5.50;99.90
35920;DHT22;36160;53.370;-6.196;2022-12-07T14:52:14;5.40;99.90
35920;DHT22;36160;53.370;-6.196;2022-12-07T14:54:41;5.40;99.90
35920;DHT22;36160;53.370;-6.196;2022-12-07T14:57:09;5.40;99.90
35920;DHT22;36160;53.370;-6.196;2022-12-07T14:59:35;5.40;99.90
35920;DHT22;36160;53.370;-6.196;2022-12-07T15:02:01;5.40;99.90
35920;DHT22;36160;53.370;-6.196;2022-12-07T15:04:26;5.40;99.90
35920;DHT22;36160;53.370;-6.196;2022-12-07T15:07:01;5.40;99.90
35920;DHT22;36160;53.370;-6.196;2022-12-07T15:09:27;5.40;99.90
35920;DHT22;36160;53.370;-6.196;2022-12-07T15:11:52;5.40;99.90
35920;DHT22;36160;53.370;-6.196;2022-12-07T15:14:18;5.40;99.90
35920;DHT22;36160;53.370;-6.196;2022-12-07T15:16:44;5.40;99.90
35920;DHT22;36160;53.370;-6.196;2022-12-07T15:19:16;5.40;99.90
35920;DHT22;36160;53.370;-6.196;2022-12-07T15:21:43;5.40;99.90
35920;DHT22;36160;53.370;-6.196;2022-12-07T15:24:10;5.30;99.90
35920;DHT22;36160;53.370;-6.196;2022-12-07T15:26:36;5.40;99.90
35920;DHT22;36160;53.370;-6.196;2022-12-07T15:29:02;5.30;99.90
35920;DHT22;36160;53.370;-6.196;2022-12-07T15:31:28;5.30;99.90
35920;DHT22;36160;53.370;-6.196;2022-12-07T15:33:53;5.40;99.90
35920;DHT22;36160;53.370;-6.196;2022-12-07T15:36:27;5.30;99.90
35920;DHT22;36160;53.370;-6.196;2022-12-07T15:38:55;5.30;1.00
35920;DHT22;36160;53.370;-6.196;2022-12-07T15:41:20;5.30;1.00
35920;DHT22;36160;53.370;-6.196;2022-12-07T15:43:46;5.30;1.00
35920;DHT22;36160;53.370;-6.196;2022-12-07T15:46:32;5.20;1.00
35920;DHT22;36160;53.370;-6.196;2022-12-07T15:48:58;5.20;1.00
35920;DHT22;36160;53.370;-6.196;2022-12-07T15:51:24;5.20;1.00
35920;DHT22;36160;53.370;-6.196;2022-12-07T15:53:50;5.20;1.00
35920;DHT22;36160;53.370;-6.196;2022-12-07T15:56:15;5.10;1.00
35920;DHT22;36160;53.370;-6.196;2022-12-07T15:58:41;5.10;1.00
35920;DHT22;36160;53.370;-6.196;2022-12-07T16:01:11;5.10;1.00
35920;DHT22;36160;53.370;-6.196;2022-12-07T16:03:37;5.00;1.00
35920;DHT22;36160;53.370;-6.196;2022-12-07T16:06:04;5.00;1.00
35920;DHT22;36160;53.370;-6.196;2022-12-07T16:08:29;4.80;1.00
35920;DHT22;36160;53.370;-6.196;2022-12-07T16:10:55;4.80;1.00
35920;DHT22;36160;53.370;-6.196;2022-12-07T16:18:22;4.70;21.70
35920;DHT22;36160;53.370;-6.196;2022-12-07T16:20:48;4.60;26.10
35920;DHT22;36160;53.370;-6.196;2022-12-07T16:23:15;4.60;30.70
35920;DHT22;36160;53.370;-6.196;2022-12-07T16:25:41;4.60;37.20
35920;DHT22;36160;53.370;-6.196;2022-12-07T16:28:07;4.50;47.40
35920;DHT22;36160;53.370;-6.196;2022-12-07T16:30:33;4.50;56.40
35920;DHT22;36160;53.370;-6.196;2022-12-07T16:32:59;4.40;64.30
35920;DHT22;36160;53.370;-6.196;2022-12-07T16:35:25;4.40;70.30
35920;DHT22;36160;53.370;-6.196;2022-12-07T16:37:50;4.40;77.70
35920;DHT22;36160;53.370;-6.196;2022-12-07T16:40:16;4.30;85.20
35920;DHT22;36160;53.370;-6.196;2022-12-07T16:42:42;4.30;87.80
35920;DHT22;36160;53.370;-6.196;2022-12-07T16:45:08;4.20;91.90
35920;DHT22;36160;53.370;-6.196;2022-12-07T16:47:40;4.10;95.50
35920;DHT22;36160;53.370;-6.196;2022-12-07T16:50:06;4.20;96.90
35920;DHT22;36160;53.370;-6.196;2022-12-07T16:52:33;4.00;99.20
35920;DHT22;36160;53.370;-6.196;2022-12-07T16:54:59;4.00;99.90
35920;DHT22;36160;53.370;-6.196;2022-12-07T16:57:24;4.00;99.90
35920;DHT22;36160;53.370;-6.196;2022-12-07T16:59:51;4.00;99.90
35920;DHT22;36160;53.370;-6.196;2022-12-07T17:02:17;3.90;99.90
35920;DHT22;36160;53.370;-6.196;2022-12-07T17:04:43;3.90;99.90
35920;DHT22;36160;53.370;-6.196;2022-12-07T17:07:09;3.90;99.90
35920;DHT22;36160;53.370;-6.196;2022-12-07T17:09:35;4.10;99.90
35920;DHT22;36160;53.370;-6.196;2022-12-07T17:12:01;4.00;99.90
35920;DHT22;36160;53.370;-6.196;2022-12-07T17:14:27;4.10;99.90
35920;DHT22;36160;53.370;-6.196;2022-12-07T17:17:11;4.00;99.90
35920;DHT22;36160;53.370;-6.196;2022-12-07T17:19:36;4.00;99.90
35920;DHT22;36160;53.370;-6.196;2022-12-07T17:22:02;4.00;99.90
35920;DHT22;36160;53.370;-6.196;2022-12-07T17:24:28;4.00;99.90
35920;DHT22;36160;53.370;-6.196;2022-12-07T17:26:54;4.00;99.90
35920;DHT22;36160;53.370;-6.196;2022-12-07T17:29:19;3.90;99.90
35920;DHT22;36160;53.370;-6.196;2022-12-07T17:31:46;3.90;99.90
35920;DHT22;36160;53.370;-6.196;2022-12-07T17:34:13;3.80;99.90
35920;DHT22;36160;53.370;-6.196;2022-12-07T17:36:39;3.90;99.90
35920;DHT22;36160;53.370;-6.196;2022-12-07T17:39:09;3.70;99.90
35920;DHT22;36160;53.370;-6.196;2022-12-07T17:41:36;3.80;99.90
35920;DHT22;36160;53.370;-6.196;2022-12-07T17:44:21;3.70;99.90
35920;DHT22;36160;53.370;-6.196;2022-12-07T17:46:49;3.70;99.90
35920;DHT22;36160;53.370;-6.196;2022-12-07T17:49:15;3.60;99.90
35920;DHT22;36160;53.370;-6.196;2022-12-07T17:51:41;3.60;99.90
35920;DHT22;36160;53.370;-6.196;2022-12-07T17:54:26;3.70;99.90
35920;DHT22;36160;53.370;-6.196;2022-12-07T17:56:51;3.70;99.90
35920;DHT22;36160;53.370;-6.196;2022-12-07T17:59:17;3.70;99.90